createdAt,value
2023-01-22T00:00:06.039Z,60.17
2023-01-22T00:01:06.046Z,51.87
2023-01-22T00:02:06.108Z,47.14
2023-01-22T00:03:06.075Z,47.21
2023-01-22T00:04:06.047Z,47.55
2023-01-22T00:05:05.992Z,46.30
2023-01-22T00:06:06.009Z,45.43
2023-01-22T00:07:05.995Z,45.93
2023-01-22T00:08:05.965Z,51.11
2023-01-22T00:09:05.984Z,47.77
2023-01-22T00:10:05.940Z,47.90
2023-01-22T00:11:05.938Z,49.19
2023-01-22T00:12:05.922Z,48.89
2023-01-22T00:13:05.951Z,49.59
2023-01-22T00:14:05.949Z,47.76
2023-01-22T00:15:05.908Z,46.65
2023-01-22T00:16:05.950Z,44.37
2023-01-22T00:17:06.873Z,58.42
2023-01-22T00:18:05.867Z,47.81
2023-01-22T00:19:05.877Z,47.68
2023-01-22T00:20:06.846Z,49.60
2023-01-22T00:21:05.840Z,48.13
2023-01-22T00:22:05.839Z,46.42
2023-01-22T00:23:05.843Z,47.04
2023-01-22T00:24:05.814Z,50.76
2023-01-22T00:25:05.785Z,51.07
2023-01-22T00:26:05.791Z,44.55
2023-01-22T00:27:05.769Z,46.26
2023-01-22T00:28:05.789Z,46.89
2023-01-22T00:29:05.783Z,45.22
2023-01-22T00:30:05.736Z,45.57
2023-01-22T00:31:05.856Z,45.70
2023-01-22T00:32:05.880Z,48.81
2023-01-22T00:33:05.739Z,46.36
2023-01-22T00:34:05.731Z,49.50
2023-01-22T00:35:05.685Z,49.45
2023-01-22T00:36:05.689Z,48.52
2023-01-22T00:37:05.779Z,49.42
2023-01-22T00:38:05.673Z,52.10
2023-01-22T00:39:05.677Z,47.28
2023-01-22T00:40:05.693Z,48.33
2023-01-22T00:41:05.636Z,46.25
2023-01-22T00:42:05.626Z,46.21
2023-01-22T00:43:05.622Z,48.75
2023-01-22T00:44:05.606Z,46.35
2023-01-22T00:45:05.642Z,49.74
2023-01-22T00:46:05.631Z,49.17
2023-01-22T00:47:05.591Z,52.38
2023-01-22T00:48:05.580Z,59.17
2023-01-22T00:49:05.548Z,52.00
2023-01-22T00:50:05.579Z,55.69
2023-01-22T00:51:05.576Z,54.55
2023-01-22T00:52:05.531Z,49.60
2023-01-22T00:53:05.565Z,47.95
2023-01-22T00:54:05.511Z,47.64
2023-01-22T00:55:05.490Z,58.67
2023-01-22T00:56:05.478Z,51.53
2023-01-22T00:57:05.470Z,51.43
2023-01-22T00:58:05.491Z,49.90
2023-01-22T00:59:05.521Z,51.91
2023-01-22T01:00:05.489Z,52.72
2023-01-22T01:01:05.490Z,52.70
2023-01-22T01:02:05.559Z,53.97
2023-01-22T01:03:05.417Z,49.25
2023-01-22T01:04:05.421Z,50.71
2023-01-22T01:05:05.405Z,49.01
2023-01-22T01:06:05.430Z,48.41
2023-01-22T01:07:05.370Z,46.49
2023-01-22T01:08:05.365Z,47.09
2023-01-22T01:09:05.371Z,44.76
2023-01-22T01:10:05.395Z,45.17
2023-01-22T01:11:05.369Z,45.47
2023-01-22T01:12:05.336Z,48.72
2023-01-22T01:13:05.408Z,49.59
2023-01-22T01:14:05.311Z,48.59
2023-01-22T01:15:05.367Z,47.75
2023-01-22T01:16:05.316Z,53.76
2023-01-22T01:17:05.303Z,50.72
2023-01-22T01:18:05.288Z,48.72
2023-01-22T01:19:05.264Z,49.96
2023-01-22T01:20:05.292Z,50.12
2023-01-22T01:21:05.243Z,49.70
2023-01-22T01:22:05.271Z,46.98
2023-01-22T01:23:05.233Z,58.72
2023-01-22T01:24:05.217Z,54.62
2023-01-22T01:25:05.215Z,48.82
2023-01-22T01:26:05.189Z,46.10
2023-01-22T01:27:05.214Z,52.73
2023-01-22T01:28:05.199Z,48.78
2023-01-22T01:29:05.241Z,45.53
2023-01-22T01:30:05.220Z,48.46
2023-01-22T01:31:05.250Z,48.76
2023-01-22T01:32:05.145Z,60.01
2023-01-22T01:33:05.121Z,45.81
2023-01-22T01:34:05.119Z,49.09
2023-01-22T01:35:05.146Z,49.64
2023-01-22T01:36:05.112Z,49.74
2023-01-22T01:37:05.113Z,47.75
2023-01-22T01:38:05.080Z,50.34
2023-01-22T01:39:05.074Z,49.73
2023-01-22T01:40:05.063Z,44.22
2023-01-22T01:41:05.073Z,46.10
2023-01-22T01:42:05.061Z,46.58
2023-01-22T01:43:05.026Z,48.22
2023-01-22T01:44:05.022Z,52.44
2023-01-22T01:45:05.101Z,46.32
2023-01-22T01:46:05.000Z,45.57
2023-01-22T01:47:05.005Z,46.98
2023-01-22T01:48:04.992Z,47.78
2023-01-22T01:49:04.980Z,48.47
2023-01-22T01:50:04.960Z,47.55
2023-01-22T01:51:05.012Z,45.26
2023-01-22T01:52:04.957Z,45.68
2023-01-22T01:53:04.986Z,49.44
2023-01-22T01:54:04.916Z,49.11
2023-01-22T01:55:04.916Z,47.23
2023-01-22T01:56:36.803Z,52.35
2023-01-22T01:57:04.883Z,49.66
2023-01-22T01:58:04.874Z,51.52
2023-01-22T01:59:04.894Z,49.23
2023-01-22T02:00:04.871Z,53.83
2023-01-22T02:01:05.004Z,45.29
2023-01-22T02:02:04.896Z,46.75
2023-01-22T02:03:04.830Z,46.43
2023-01-22T02:04:04.841Z,48.40
2023-01-22T02:05:04.801Z,46.02
2023-01-22T02:06:04.800Z,47.08
2023-01-22T02:07:04.812Z,47.13
2023-01-22T02:08:04.769Z,47.83
2023-01-22T02:09:04.772Z,45.38
2023-01-22T02:10:04.767Z,47.62
2023-01-22T02:11:04.769Z,46.91
2023-01-22T02:12:04.756Z,44.77
2023-01-22T02:13:04.727Z,51.60
2023-01-22T02:14:04.736Z,49.68
2023-01-22T02:15:04.717Z,51.68
2023-01-22T02:16:04.760Z,48.57
2023-01-22T02:17:10.396Z,54.33
2023-01-22T02:18:05.774Z,53.36
2023-01-22T02:19:04.706Z,49.95
2023-01-22T02:20:04.673Z,50.59
2023-01-22T02:21:04.671Z,54.93
2023-01-22T02:22:04.644Z,55.36
2023-01-22T02:23:04.637Z,50.63
2023-01-22T02:24:04.665Z,50.86
2023-01-22T02:25:04.610Z,50.46
2023-01-22T02:26:04.626Z,46.50
2023-01-22T02:27:04.622Z,45.88
2023-01-22T02:28:04.595Z,56.26
2023-01-22T02:29:04.576Z,46.60
2023-01-22T02:30:04.565Z,51.27
2023-01-22T02:31:04.617Z,45.98
2023-01-22T02:32:04.567Z,49.38
2023-01-22T02:33:04.560Z,46.97
2023-01-22T02:34:04.596Z,48.72
2023-01-22T02:35:04.520Z,46.81
2023-01-22T02:36:04.502Z,47.36
2023-01-22T02:37:04.530Z,45.80
2023-01-22T02:38:04.487Z,50.97
2023-01-22T02:39:04.475Z,49.15
2023-01-22T02:40:04.469Z,50.66
2023-01-22T02:41:04.454Z,61.08
2023-01-22T02:42:04.497Z,51.53
2023-01-22T02:43:04.454Z,59.25
2023-01-22T02:44:04.439Z,55.99
2023-01-22T02:45:04.424Z,47.44
2023-01-22T02:46:04.451Z,49.06
2023-01-22T02:47:04.407Z,60.04
2023-01-22T02:48:04.413Z,50.75
2023-01-22T02:49:04.387Z,54.21
2023-01-22T02:50:04.462Z,56.70
2023-01-22T02:51:04.421Z,48.74
2023-01-22T02:52:04.382Z,49.32
2023-01-22T02:53:04.355Z,53.88
2023-01-22T02:54:04.346Z,57.18
2023-01-22T02:55:04.317Z,55.93
2023-01-22T02:56:05.342Z,50.34
2023-01-22T02:57:04.363Z,48.35
2023-01-22T02:58:04.299Z,59.00
2023-01-22T02:59:04.302Z,51.29
2023-01-22T03:00:04.280Z,51.34
2023-01-22T03:01:04.290Z,49.28
2023-01-22T03:02:05.327Z,50.93
2023-01-22T03:03:04.262Z,49.48
2023-01-22T03:04:04.250Z,64.87
2023-01-22T03:05:04.237Z,51.23
2023-01-22T03:06:04.313Z,49.65
2023-01-22T03:07:04.208Z,51.35
2023-01-22T03:08:04.219Z,62.41
2023-01-22T03:09:04.239Z,51.29
2023-01-22T03:10:04.180Z,50.25
2023-01-22T03:11:04.170Z,60.75
2023-01-22T03:12:04.164Z,48.14
2023-01-22T03:13:04.157Z,49.73
2023-01-22T03:14:04.171Z,50.94
2023-01-22T03:15:04.140Z,50.17
2023-01-22T03:16:04.193Z,45.69
2023-01-22T03:17:04.123Z,46.96
2023-01-22T03:18:04.111Z,49.10
2023-01-22T03:19:04.099Z,46.88
2023-01-22T03:20:04.115Z,47.08
2023-01-22T03:21:04.078Z,49.24
2023-01-22T03:22:04.159Z,47.04
2023-01-22T03:23:04.073Z,48.65
2023-01-22T03:24:04.067Z,58.71
2023-01-22T03:25:04.059Z,50.08
2023-01-22T03:26:04.029Z,47.47
2023-01-22T03:27:04.044Z,45.89
2023-01-22T03:28:04.012Z,48.48
2023-01-22T03:29:04.016Z,49.55
2023-01-22T03:30:04.028Z,45.40
2023-01-22T03:31:04.001Z,46.05
2023-01-22T03:32:03.995Z,45.60
2023-01-22T03:33:03.971Z,50.58
2023-01-22T03:34:03.958Z,45.23
2023-01-22T03:35:03.985Z,44.29
2023-01-22T03:36:03.941Z,44.91
2023-01-22T03:37:03.915Z,54.93
2023-01-22T03:38:04.993Z,53.25
2023-01-22T03:39:03.929Z,49.77
2023-01-22T03:40:03.891Z,48.56
2023-01-22T03:41:03.908Z,50.52
2023-01-22T03:42:03.870Z,46.82
2023-01-22T03:43:03.861Z,46.65
2023-01-22T03:44:03.856Z,45.01
2023-01-22T03:45:03.865Z,46.08
2023-01-22T03:46:03.934Z,53.17
2023-01-22T03:47:03.828Z,54.44
2023-01-22T03:48:03.812Z,53.55
2023-01-22T03:49:03.802Z,56.86
2023-01-22T03:50:03.797Z,55.71
2023-01-22T03:51:03.856Z,48.58
2023-01-22T03:52:03.771Z,48.51
2023-01-22T03:53:03.769Z,49.46
2023-01-22T03:54:03.839Z,51.97
2023-01-22T03:55:03.759Z,47.75
2023-01-22T03:56:03.770Z,49.53
2023-01-22T03:57:03.729Z,45.36
2023-01-22T03:58:03.724Z,44.87
2023-01-22T03:59:03.712Z,45.76
2023-01-22T04:00:03.699Z,49.53
2023-01-22T04:01:03.730Z,51.84
2023-01-22T04:02:03.682Z,49.59
2023-01-22T04:03:03.667Z,47.66
2023-01-22T04:04:03.658Z,47.97
2023-01-22T04:05:03.641Z,47.24
2023-01-22T04:06:03.647Z,48.42
2023-01-22T04:07:03.643Z,49.25
2023-01-22T04:08:03.620Z,48.77
2023-01-22T04:09:03.629Z,46.63
2023-01-22T04:10:03.674Z,52.07
2023-01-22T04:11:03.604Z,51.13
2023-01-22T04:12:03.593Z,47.83
2023-01-22T04:13:03.588Z,47.08
2023-01-22T04:14:03.578Z,46.10
2023-01-22T04:15:03.552Z,49.49
2023-01-22T04:16:03.551Z,50.94
2023-01-22T04:17:03.559Z,48.80
2023-01-22T04:18:03.524Z,48.69
2023-01-22T04:19:03.539Z,48.68
2023-01-22T04:20:03.510Z,49.96
2023-01-22T04:21:03.495Z,47.45
2023-01-22T04:22:03.479Z,47.50
2023-01-22T04:23:03.480Z,54.83
2023-01-22T04:24:03.482Z,52.51
2023-01-22T04:25:03.457Z,51.10
2023-01-22T04:26:03.545Z,49.29
2023-01-22T04:27:03.439Z,49.88
2023-01-22T04:28:03.441Z,51.60
2023-01-22T04:29:03.463Z,60.72
2023-01-22T04:30:03.407Z,46.97
2023-01-22T04:31:03.454Z,50.75
2023-01-22T04:32:03.382Z,49.50
2023-01-22T04:33:03.420Z,49.80
2023-01-22T04:34:03.377Z,52.05
2023-01-22T04:35:03.357Z,54.36
2023-01-22T04:36:03.349Z,48.98
2023-01-22T04:37:03.356Z,51.42
2023-01-22T04:38:03.344Z,50.78
2023-01-22T04:39:03.326Z,48.04
2023-01-22T04:40:03.332Z,49.61
2023-01-22T04:41:03.301Z,48.44
2023-01-22T04:42:03.370Z,51.57
2023-01-22T04:43:03.289Z,49.85
2023-01-22T04:44:03.299Z,52.63
2023-01-22T04:45:03.276Z,47.71
2023-01-22T04:46:03.261Z,49.79
2023-01-22T04:47:03.243Z,49.45
2023-01-22T04:48:03.241Z,48.54
2023-01-22T04:49:03.254Z,50.70
2023-01-22T04:50:03.213Z,47.66
2023-01-22T04:51:03.258Z,49.79
2023-01-22T04:52:03.190Z,65.03
2023-01-22T04:53:03.203Z,48.94
2023-01-22T04:54:03.180Z,48.82
2023-01-22T04:55:03.171Z,51.29
2023-01-22T04:56:03.173Z,50.36
2023-01-22T04:57:03.160Z,49.68
2023-01-22T04:58:03.229Z,51.54
2023-01-22T04:59:03.129Z,59.89
2023-01-22T05:00:03.116Z,48.58
2023-01-22T05:01:03.141Z,50.28
2023-01-22T05:02:03.133Z,52.13
2023-01-22T05:03:03.085Z,50.52
2023-01-22T05:04:03.078Z,49.11
2023-01-22T05:05:03.086Z,61.58
2023-01-22T05:06:03.079Z,46.43
2023-01-22T05:07:03.045Z,51.31
2023-01-22T05:08:03.038Z,62.28
2023-01-22T05:09:03.030Z,53.75
2023-01-22T05:10:03.074Z,47.04
2023-01-22T05:11:03.049Z,51.86
2023-01-22T05:12:03.014Z,50.80
2023-01-22T05:13:03.003Z,52.64
2023-01-22T05:14:03.084Z,61.26
2023-01-22T05:15:07.272Z,58.38
2023-01-22T05:16:04.018Z,52.65
2023-01-22T05:17:02.953Z,46.33
2023-01-22T05:18:02.947Z,48.08
2023-01-22T05:19:02.938Z,46.64
2023-01-22T05:20:02.938Z,54.59
2023-01-22T05:21:02.940Z,53.06
2023-01-22T05:22:02.918Z,47.58
2023-01-22T05:23:02.897Z,46.44
2023-01-22T05:24:02.894Z,46.00
2023-01-22T05:25:02.883Z,49.29
2023-01-22T05:26:02.894Z,52.71
2023-01-22T05:27:02.864Z,51.56
2023-01-22T05:28:02.860Z,55.94
2023-01-22T05:29:02.845Z,56.41
2023-01-22T05:30:02.933Z,52.78
2023-01-22T05:31:02.952Z,48.57
2023-01-22T05:32:02.858Z,49.79
2023-01-22T05:33:02.848Z,47.68
2023-01-22T05:34:02.780Z,48.18
2023-01-22T05:35:02.771Z,56.91
2023-01-22T05:36:02.787Z,55.22
2023-01-22T05:37:02.781Z,50.80
2023-01-22T05:38:02.751Z,47.46
2023-01-22T05:39:02.761Z,48.55
2023-01-22T05:40:02.735Z,48.09
2023-01-22T05:41:02.732Z,50.10
2023-01-22T05:42:02.718Z,50.94
2023-01-22T05:43:02.701Z,51.04
2023-01-22T05:44:02.685Z,48.59
2023-01-22T05:45:03.672Z,49.27
2023-01-22T05:46:02.838Z,49.93
2023-01-22T05:47:02.661Z,47.00
2023-01-22T05:48:02.656Z,45.00
2023-01-22T05:49:02.661Z,45.59
2023-01-22T05:50:02.643Z,48.51
2023-01-22T05:51:02.659Z,52.21
2023-01-22T05:52:02.609Z,57.08
2023-01-22T05:53:02.601Z,48.81
2023-01-22T05:54:02.620Z,49.31
2023-01-22T05:55:02.583Z,52.74
2023-01-22T05:56:02.585Z,47.34
2023-01-22T05:57:02.574Z,47.60
2023-01-22T05:58:02.847Z,49.31
2023-01-22T05:59:02.544Z,49.94
2023-01-22T06:00:02.564Z,50.27
2023-01-22T06:01:02.532Z,48.10
2023-01-22T06:02:02.599Z,51.02
2023-01-22T06:03:02.505Z,53.89
2023-01-22T06:04:02.507Z,59.51
2023-01-22T06:05:02.533Z,50.27
2023-01-22T06:06:02.467Z,47.23
2023-01-22T06:07:02.466Z,46.15
2023-01-22T06:08:02.465Z,48.78
2023-01-22T06:09:02.444Z,53.29
2023-01-22T06:10:02.452Z,51.10
2023-01-22T06:11:02.427Z,48.13
2023-01-22T06:12:02.421Z,47.93
2023-01-22T06:13:02.411Z,51.51
2023-01-22T06:14:02.396Z,47.32
2023-01-22T06:15:02.387Z,54.06
2023-01-22T06:16:02.428Z,60.06
2023-01-22T06:17:02.429Z,51.46
2023-01-22T06:18:02.441Z,49.09
2023-01-22T06:19:02.349Z,49.30
2023-01-22T06:20:02.359Z,48.16
2023-01-22T06:21:02.334Z,45.13
2023-01-22T06:22:02.343Z,52.03
2023-01-22T06:23:02.309Z,48.15
2023-01-22T06:24:02.307Z,50.27
2023-01-22T06:25:02.307Z,48.45
2023-01-22T06:26:02.303Z,48.82
2023-01-22T06:27:02.298Z,52.48
2023-01-22T06:28:02.279Z,64.24
2023-01-22T06:29:02.249Z,45.76
2023-01-22T06:30:02.264Z,47.62
2023-01-22T06:31:02.550Z,49.09
2023-01-22T06:32:02.249Z,57.99
2023-01-22T06:33:02.283Z,53.22
2023-01-22T06:34:02.331Z,50.84
2023-01-22T06:35:02.181Z,49.16
2023-01-22T06:36:02.257Z,51.13
2023-01-22T06:37:02.193Z,50.91
2023-01-22T06:38:02.180Z,61.38
2023-01-22T06:39:02.179Z,49.39
2023-01-22T06:40:02.150Z,48.21
2023-01-22T06:41:02.144Z,47.98
2023-01-22T06:42:02.127Z,49.58
2023-01-22T06:43:02.121Z,63.43
2023-01-22T06:44:02.169Z,53.80
2023-01-22T06:45:02.127Z,51.23
2023-01-22T06:46:02.086Z,51.57
2023-01-22T06:47:02.081Z,50.01
2023-01-22T06:48:02.060Z,51.19
2023-01-22T06:49:02.056Z,51.88
2023-01-22T06:50:02.152Z,51.85
2023-01-22T06:51:02.121Z,76.49
2023-01-22T06:52:02.044Z,50.90
2023-01-22T06:53:02.004Z,49.22
2023-01-22T06:54:02.001Z,47.58
2023-01-22T06:55:02.011Z,50.70
2023-01-22T06:56:01.991Z,57.62
2023-01-22T06:57:01.967Z,58.54
2023-01-22T06:58:01.987Z,50.74
2023-01-22T06:59:01.944Z,49.31
2023-01-22T07:00:01.999Z,53.28
2023-01-22T07:01:01.928Z,50.69
2023-01-22T07:02:01.976Z,52.14
2023-01-22T07:03:01.899Z,52.43
2023-01-22T07:04:01.945Z,51.87
2023-01-22T07:05:01.885Z,49.76
2023-01-22T07:06:01.968Z,48.63
2023-01-22T07:07:01.877Z,49.21
2023-01-22T07:08:01.876Z,49.84
2023-01-22T07:09:01.902Z,50.05
2023-01-22T07:10:01.845Z,52.48
2023-01-22T07:11:01.838Z,49.82
2023-01-22T07:12:01.832Z,50.05
2023-01-22T07:13:02.820Z,46.93
2023-01-22T07:14:01.829Z,46.65
2023-01-22T07:15:01.804Z,47.97
2023-01-22T07:16:01.868Z,46.50
2023-01-22T07:17:01.781Z,46.04
2023-01-22T07:18:01.783Z,49.55
2023-01-22T07:19:01.783Z,53.77
2023-01-22T07:20:01.782Z,50.05
2023-01-22T07:21:01.738Z,48.84
2023-01-22T07:22:01.809Z,51.59
2023-01-22T07:23:01.725Z,48.40
2023-01-22T07:24:01.703Z,48.91
2023-01-22T07:25:02.730Z,48.93
2023-01-22T07:26:01.702Z,54.21
2023-01-22T07:27:01.683Z,50.00
2023-01-22T07:28:01.679Z,53.06
2023-01-22T07:29:01.658Z,54.65
2023-01-22T07:30:01.668Z,52.98
2023-01-22T07:31:01.739Z,49.19
2023-01-22T07:32:01.621Z,49.31
2023-01-22T07:33:01.635Z,55.05
2023-01-22T07:34:01.610Z,60.20
2023-01-22T07:35:01.594Z,57.23
2023-01-22T07:36:01.618Z,50.86
2023-01-22T07:37:01.565Z,52.01
2023-01-22T07:38:01.719Z,53.18
2023-01-22T07:39:01.560Z,51.05
2023-01-22T07:40:01.623Z,53.09
2023-01-22T07:41:01.572Z,56.24
2023-01-22T07:42:01.658Z,66.39
2023-01-22T07:43:01.568Z,56.26
2023-01-22T07:44:01.554Z,52.77
2023-01-22T07:45:01.534Z,53.59
2023-01-22T07:46:01.530Z,52.12
2023-01-22T07:47:01.500Z,53.84
2023-01-22T07:48:01.495Z,54.43
2023-01-22T07:49:01.472Z,54.05
2023-01-22T07:50:01.465Z,55.81
2023-01-22T07:51:01.467Z,56.06
2023-01-22T07:52:01.461Z,55.32
2023-01-22T07:53:01.434Z,51.94
2023-01-22T07:54:01.550Z,54.53
2023-01-22T07:55:01.412Z,64.48
2023-01-22T07:56:11.699Z,68.42
2023-01-22T07:57:01.399Z,55.44
2023-01-22T07:58:01.379Z,51.85
2023-01-22T07:59:01.417Z,52.65
2023-01-22T08:00:01.388Z,53.25
2023-01-22T08:01:01.480Z,51.44
2023-01-22T08:02:03.499Z,56.61
2023-01-22T08:03:02.333Z,52.44
2023-01-22T08:04:01.327Z,51.40
2023-01-22T08:05:01.327Z,53.07
2023-01-22T08:06:01.312Z,52.94
2023-01-22T08:07:01.284Z,52.77
2023-01-22T08:08:02.289Z,52.14
2023-01-22T08:09:01.287Z,55.79
2023-01-22T08:10:01.336Z,61.01
2023-01-22T08:11:01.285Z,55.91
2023-01-22T08:12:01.250Z,51.88
2023-01-22T08:13:01.230Z,53.44
2023-01-22T08:14:02.228Z,58.68
2023-01-22T08:15:01.231Z,52.49
2023-01-22T08:16:01.298Z,53.67
2023-01-22T08:17:01.187Z,58.42
2023-01-22T08:18:01.226Z,54.92
2023-01-22T08:19:01.197Z,53.93
2023-01-22T08:20:01.168Z,53.86
2023-01-22T08:21:01.209Z,52.45
2023-01-22T08:22:01.149Z,55.79
2023-01-22T08:23:01.139Z,53.88
2023-01-22T08:24:01.122Z,57.23
2023-01-22T08:25:01.122Z,54.37
2023-01-22T08:26:01.183Z,55.45
2023-01-22T08:27:01.116Z,54.73
2023-01-22T08:28:01.083Z,56.53
2023-01-22T08:29:04.813Z,56.22
2023-01-22T08:30:01.070Z,56.15
2023-01-22T08:31:01.108Z,57.09
2023-01-22T08:32:02.196Z,59.98
2023-01-22T08:33:01.038Z,57.84
2023-01-22T08:34:01.051Z,60.85
2023-01-22T08:35:01.007Z,63.72
2023-01-22T08:36:00.995Z,55.73
2023-01-22T08:37:01.009Z,57.23
2023-01-22T08:38:00.999Z,56.87
2023-01-22T08:39:00.997Z,56.73
2023-01-22T08:40:00.977Z,55.89
2023-01-22T08:41:00.968Z,58.75
2023-01-22T08:42:01.023Z,56.28
2023-01-22T08:43:00.954Z,58.31
2023-01-22T08:44:00.924Z,62.00
2023-01-22T08:45:00.935Z,56.37
2023-01-22T08:46:00.945Z,58.49
2023-01-22T08:47:00.894Z,55.77
2023-01-22T08:48:00.895Z,60.21
2023-01-22T08:49:00.934Z,66.28
2023-01-22T08:50:00.870Z,58.37
2023-01-22T08:51:00.906Z,57.04
2023-01-22T08:52:00.853Z,57.15
2023-01-22T08:53:00.864Z,58.69
2023-01-22T08:54:00.847Z,60.35
2023-01-22T08:55:00.829Z,57.10
2023-01-22T08:56:00.821Z,55.15
2023-01-22T08:57:00.833Z,56.84
2023-01-22T08:58:00.883Z,57.27
2023-01-22T08:59:00.780Z,56.47
2023-01-22T09:00:01.697Z,55.99
2023-01-22T09:01:01.865Z,54.66
2023-01-22T09:02:00.810Z,56.28
2023-01-22T09:03:00.801Z,52.73
2023-01-22T09:04:00.743Z,55.23
2023-01-22T09:05:00.739Z,53.47
2023-01-22T09:06:00.716Z,56.52
2023-01-22T09:07:00.739Z,56.51
2023-01-22T09:08:00.715Z,56.51
2023-01-22T09:09:00.681Z,60.85
2023-01-22T09:10:00.669Z,54.66
2023-01-22T09:11:00.661Z,55.99
2023-01-22T09:12:00.659Z,59.31
2023-01-22T09:13:00.672Z,53.78
2023-01-22T09:14:00.727Z,59.22
2023-01-22T09:15:00.642Z,56.84
2023-01-22T09:16:00.665Z,57.80
2023-01-22T09:17:00.612Z,56.65
2023-01-22T09:18:00.654Z,55.53
2023-01-22T09:19:00.589Z,58.30
2023-01-22T09:20:00.598Z,58.16
2023-01-22T09:21:00.570Z,57.41
2023-01-22T09:22:00.572Z,58.54
2023-01-22T09:23:00.537Z,55.78
2023-01-22T09:24:00.575Z,59.80
2023-01-22T09:25:00.587Z,59.20
2023-01-22T09:26:00.531Z,52.96
2023-01-22T09:27:00.538Z,55.25
2023-01-22T09:28:00.518Z,55.29
2023-01-22T09:29:00.500Z,54.72
2023-01-22T09:30:00.586Z,56.86
2023-01-22T09:31:00.507Z,59.88
2023-01-22T09:32:00.552Z,57.61
2023-01-22T09:33:00.453Z,58.85
2023-01-22T09:34:00.450Z,52.70
2023-01-22T09:35:00.443Z,55.93
2023-01-22T09:36:00.462Z,54.15
2023-01-22T09:37:00.429Z,52.97
2023-01-22T09:38:00.423Z,56.32
2023-01-22T09:39:00.417Z,56.88
2023-01-22T09:40:00.415Z,56.29
2023-01-22T09:41:00.410Z,54.90
2023-01-22T09:42:00.368Z,57.58
2023-01-22T09:43:00.359Z,54.65
2023-01-22T09:44:00.344Z,55.42
2023-01-22T09:45:00.392Z,53.84
2023-01-22T09:46:00.679Z,54.05
2023-01-22T09:47:00.323Z,55.08
2023-01-22T09:48:00.315Z,55.65
2023-01-22T09:49:00.312Z,55.35
2023-01-22T09:50:00.315Z,56.85
2023-01-22T09:51:00.348Z,57.87
2023-01-22T09:52:00.298Z,56.66
2023-01-22T09:53:00.268Z,58.14
2023-01-22T09:54:00.269Z,56.88
2023-01-22T09:55:00.230Z,55.85
2023-01-22T09:56:00.263Z,54.13
2023-01-22T09:57:00.207Z,56.39
2023-01-22T09:58:00.223Z,56.83
2023-01-22T09:59:00.197Z,58.53
2023-01-22T10:00:00.238Z,58.81
2023-01-22T10:01:00.703Z,61.18
2023-01-22T10:02:00.293Z,57.65
2023-01-22T10:03:00.186Z,55.86
2023-01-22T10:04:00.183Z,56.84
2023-01-22T10:05:00.196Z,57.48
2023-01-22T10:06:00.167Z,59.31
2023-01-22T10:07:00.137Z,55.55
2023-01-22T10:08:00.133Z,57.54
2023-01-22T10:09:00.122Z,55.39
2023-01-22T10:10:00.169Z,52.34
2023-01-22T10:11:00.136Z,56.29
2023-01-22T10:12:00.143Z,56.74
2023-01-22T10:13:00.094Z,54.76
2023-01-22T10:14:00.081Z,57.54
2023-01-22T10:15:00.050Z,60.48
2023-01-22T10:16:00.102Z,56.10
2023-01-22T10:17:00.163Z,54.36
2023-01-22T10:18:00.129Z,56.64
2023-01-22T10:19:00.017Z,56.14
2023-01-22T10:20:00.057Z,57.25
2023-01-22T10:21:00.019Z,57.14
2023-01-22T10:22:00.009Z,56.10
2023-01-22T10:22:59.996Z,57.43
2023-01-22T10:24:00.025Z,56.83
2023-01-22T10:25:00.000Z,55.85
2023-01-22T10:25:59.979Z,61.06
2023-01-22T10:26:59.961Z,63.31
2023-01-22T10:27:59.974Z,58.23
2023-01-22T10:28:59.943Z,58.17
2023-01-22T10:29:59.912Z,53.84
2023-01-22T10:30:59.955Z,56.33
2023-01-22T10:31:59.967Z,60.07
2023-01-22T10:32:59.908Z,56.81
2023-01-22T10:33:59.965Z,56.84
2023-01-22T10:34:59.887Z,60.15
2023-01-22T10:35:59.886Z,58.51
2023-01-22T10:36:59.860Z,56.59
2023-01-22T10:37:59.828Z,57.33
2023-01-22T10:38:59.835Z,60.94
2023-01-22T10:39:59.868Z,56.19
2023-01-22T10:40:59.819Z,57.57
2023-01-22T10:41:59.807Z,56.96
2023-01-22T10:42:59.806Z,56.50
2023-01-22T10:43:59.795Z,58.59
2023-01-22T10:44:59.805Z,57.20
2023-01-22T10:45:59.884Z,58.68
2023-01-22T10:46:59.835Z,60.17
2023-01-22T10:47:59.774Z,58.26
2023-01-22T10:48:59.716Z,60.73
2023-01-22T10:49:59.775Z,58.86
2023-01-22T10:50:59.733Z,58.93
2023-01-22T10:51:59.709Z,59.21
2023-01-22T10:52:59.662Z,59.42
2023-01-22T10:53:59.676Z,59.43
2023-01-22T10:54:59.656Z,56.16
2023-01-22T10:55:59.642Z,58.75
2023-01-22T10:56:59.657Z,58.98
2023-01-22T10:57:59.629Z,57.56
2023-01-22T10:58:59.603Z,56.74
2023-01-22T10:59:59.627Z,60.49
2023-01-22T11:00:59.619Z,58.26
2023-01-22T11:01:59.622Z,57.06
2023-01-22T11:02:59.574Z,57.25
2023-01-22T11:03:59.564Z,60.36
2023-01-22T11:04:59.567Z,59.42
2023-01-22T11:05:59.641Z,66.55
2023-01-22T11:06:59.553Z,60.33
2023-01-22T11:07:59.554Z,58.66
2023-01-22T11:08:59.498Z,59.20
2023-01-22T11:09:59.526Z,59.22
2023-01-22T11:10:59.493Z,58.98
2023-01-22T11:11:59.512Z,58.61
2023-01-22T11:12:59.737Z,56.81
2023-01-22T11:14:00.480Z,57.82
2023-01-22T11:14:59.469Z,57.63
2023-01-22T11:15:59.529Z,52.79
2023-01-22T11:16:59.440Z,56.02
2023-01-22T11:17:59.452Z,57.98
2023-01-22T11:18:59.442Z,58.92
2023-01-22T11:19:59.420Z,58.12
2023-01-22T11:20:59.453Z,59.23
2023-01-22T11:21:59.497Z,58.10
2023-01-22T11:22:59.394Z,58.14
2023-01-22T11:23:59.356Z,59.42
2023-01-22T11:24:59.353Z,56.04
2023-01-22T11:25:59.359Z,57.05
2023-01-22T11:26:59.338Z,55.53
2023-01-22T11:27:59.331Z,55.80
2023-01-22T11:28:59.323Z,56.49
2023-01-22T11:29:59.312Z,57.27
2023-01-22T11:30:59.377Z,56.94
2023-01-22T11:31:59.299Z,56.97
2023-01-22T11:32:59.281Z,59.20
2023-01-22T11:33:59.279Z,57.91
2023-01-22T11:34:59.261Z,56.11
2023-01-22T11:35:59.252Z,59.26
2023-01-22T11:36:59.267Z,56.82
2023-01-22T11:37:59.309Z,56.96
2023-01-22T11:38:59.222Z,56.85
2023-01-22T11:39:59.215Z,57.05
2023-01-22T11:40:59.193Z,58.06
2023-01-22T11:41:59.201Z,59.65
2023-01-22T11:42:59.179Z,65.16
2023-01-22T11:43:59.171Z,55.78
2023-01-22T11:44:59.185Z,58.59
2023-01-22T11:45:59.188Z,57.73
2023-01-22T11:46:59.138Z,58.83
2023-01-22T11:47:59.133Z,58.56
2023-01-22T11:48:59.118Z,54.82
2023-01-22T11:49:59.139Z,59.01
2023-01-22T11:50:59.188Z,58.73
2023-01-22T11:51:59.116Z,56.43
2023-01-22T11:52:59.088Z,56.94
2023-01-22T11:53:59.150Z,59.56
2023-01-22T11:54:59.066Z,67.13
2023-01-22T11:55:59.048Z,57.20
2023-01-22T11:56:59.107Z,59.26
2023-01-22T11:57:59.022Z,61.92
2023-01-22T11:58:59.027Z,59.62
2023-01-22T11:59:59.008Z,57.50
2023-01-22T12:00:59.016Z,59.82
2023-01-22T12:01:59.007Z,67.57
2023-01-22T12:02:59.049Z,59.38
2023-01-22T12:03:59.094Z,57.77
2023-01-22T12:04:58.965Z,59.61
2023-01-22T12:05:58.942Z,58.19
2023-01-22T12:06:58.979Z,60.08
2023-01-22T12:07:58.938Z,57.40
2023-01-22T12:08:58.949Z,59.98
2023-01-22T12:09:58.986Z,59.29
2023-01-22T12:10:58.890Z,58.18
2023-01-22T12:11:58.894Z,62.05
2023-01-22T12:12:58.881Z,61.13
2023-01-22T12:13:58.895Z,58.11
2023-01-22T12:14:58.852Z,59.36
2023-01-22T12:15:58.885Z,58.60
2023-01-22T12:16:58.843Z,57.37
2023-01-22T12:17:58.825Z,68.93
2023-01-22T12:18:58.819Z,61.43
2023-01-22T12:19:58.851Z,59.88
2023-01-22T12:20:58.798Z,61.25
2023-01-22T12:21:58.778Z,56.31
2023-01-22T12:22:58.788Z,56.02
2023-01-22T12:23:58.770Z,59.19
2023-01-22T12:24:58.806Z,57.65
2023-01-22T12:25:58.845Z,59.01
2023-01-22T12:26:58.783Z,61.98
2023-01-22T12:27:58.717Z,59.20
2023-01-22T12:28:59.739Z,58.65
2023-01-22T12:29:58.715Z,55.83
2023-01-22T12:30:58.839Z,57.44
2023-01-22T12:31:58.751Z,57.95
2023-01-22T12:32:58.715Z,56.17
2023-01-22T12:33:58.683Z,57.00
2023-01-22T12:34:58.687Z,57.57
2023-01-22T12:35:58.670Z,59.60
2023-01-22T12:36:58.655Z,58.77
2023-01-22T12:37:58.643Z,57.55
2023-01-22T12:38:58.655Z,60.04
2023-01-22T12:39:58.633Z,62.03
2023-01-22T12:40:58.603Z,59.94
2023-01-22T12:41:58.694Z,66.54
2023-01-22T12:42:58.611Z,58.69
2023-01-22T12:43:58.573Z,60.36
2023-01-22T12:44:58.561Z,60.64
2023-01-22T12:45:58.544Z,59.34
2023-01-22T12:46:59.550Z,58.47
2023-01-22T12:47:58.560Z,56.20
2023-01-22T12:48:58.528Z,58.61
2023-01-22T12:49:58.509Z,60.59
2023-01-22T12:50:58.518Z,58.73
2023-01-22T12:51:58.514Z,58.35